KAUS/AUS METAR and TAF weather

Enter ICAO airport designator
Station Type Date Time Source
KAUS METAR 2023/01/29 19:53 UTC NOAA

KAUS 291953Z 03007KT 10SM FEW020 BKN070 BKN090 22/18 A2994 RMK AO2 SLP132 T02170178


Station Type Date Time Source
KAUS Decoded METAR 2023/01/29 19:53 UTC NOAA

AUSTIN-BERGSTROM INTERNATIONAL AIRPORT, TX, United States (KAUS) 30-11N 097-41W 172M
Jan 29, 2023 - 02:53 PM EST / 2023.01.29 1953 UTC
Wind: from the NNE (030 degrees) at 8 MPH (7 KT):0
Visibility: 10 mile(s):0
Sky conditions: mostly cloudy
Temperature: 71.1 F (21.7 C)
Dew Point: 64.0 F (17.8 C)
Relative Humidity: 78%
Pressure (altimeter): 29.94 in. Hg (1013 hPa)
ob: KAUS 291953Z 03007KT 10SM FEW020 BKN070 BKN090 22/18 A2994 RMK AO2 SLP132 T02170178
cycle: 20

Station Type Date Time Source
KAUS TAF 2023/01/29 18:45 UTC NOAA

TAF KAUS 291742Z 2918/3024 33006KT 6SM -SHRA BR VCTS SCT010 BKN020CB BKN050
TEMPO 2918/2919 3SM TSRA BKN010 OVC015CB
FM292000 35012KT P6SM -SHRA BKN015 OVC025
FM292200 01012G22KT P6SM SCT025 BKN045
FM300600 36013G23KT P6SM BKN015 OVC025
FM301500 01014G24KT P6SM VCSH BKN009 OVC012

Example: see airport list